Fuat Reis I — TCVN9 — position and weather

sailwx.info

Track history (hours):
 
Tides and Currents Weather Stations Pressure Air Temp Water Temp Dewpoint Dewpoint Depression Visibility Wind Speed Wind Dir Waves Ship Positions

Fuat Reis I

Last reported at 2017-Oct-19 06:32 UTC. Time now 2017-Oct-19 07:10 UTC.
Position N 36°42' E 030°50'.

Type: Fishing. MMSI: 271073040.

Date/timePositionNaut miles runAvg speedWind from/ knotsBaromVisibWave heightAir tempDewpointWater temp
2017-Oct-19 06:32N 36°42' E 030°50'0 4.1
2017-Oct-19 06:30N 36°42' E 030°50'4 7.7
2017-Oct-19 06:00N 36°43' E 030°45'4 8.7
2017-Oct-19 05:30N 36°46' E 030°41'4 8.4
2017-Oct-19 05:00N 36°48' E 030°36'1 2.2
2017-Oct-19 04:26N 36°48' E 030°35'0 0.0
2017-Oct-19 03:56N 36°48' E 030°35'0 0.0
2017-Oct-19 03:29N 36°48' E 030°35'0 0.0
2017-Oct-19 02:59N 36°48' E 030°35'2 4.5
2017-Oct-19 02:30N 36°48' E 030°37'4 8.6
2017-Oct-19 02:00N 36°48' E 030°43'4 8.7
2017-Oct-19 01:30N 36°48' E 030°48'3 5.1
2017-Oct-19 00:59N 36°49' E 030°51'1 2.6
2017-Oct-19 00:29N 36°48' E 030°53'1 2.7
2017-Oct-18 23:57N 36°48' E 030°55'1 0.1
2017-Oct-18 16:28N 36°48' E 030°54'1 2.6
2017-Oct-18 16:01N 36°47' E 030°53'4 6.2
2017-Oct-18 15:27N 36°44' E 030°53'1 2.4
2017-Oct-18 14:59N 36°43' E 030°53'5 2.1
2017-Oct-18 12:46N 36°41' E 030°59'1 2.4
2017-Oct-18 12:30N 36°41' E 030°59'1 2.4
2017-Oct-18 11:59N 36°41' E 031°01'1 2.5
2017-Oct-18 11:30N 36°41' E 031°03'9 1.3
2017-Oct-18 04:06N 36°43' E 030°51'2 8.5
2017-Oct-18 03:54N 36°44' E 030°50'3 8.6
2017-Oct-18 03:30N 36°48' E 030°50'3 5.0
2017-Oct-18 03:00N 36°50' E 030°52'1 2.4
2017-Oct-18 02:30N 36°49' E 030°53'1 2.6
2017-Oct-18 02:00N 36°49' E 030°54'2 2.5
2017-Oct-18 01:11N 36°48' E 030°57'4 0.6
2017-Oct-17 17:37N 36°49' E 030°51'0 2.7
2017-Oct-17 17:30N 36°49' E 030°51'1 2.6
2017-Oct-17 17:00N 36°49' E 030°49'2 4.7
2017-Oct-17 16:30N 36°48' E 030°47'4 7.6
2017-Oct-17 16:00N 36°48' E 030°42'4 8.0
2017-Oct-17 15:30N 36°48' E 030°37'2 3.7
2017-Oct-17 14:59N 36°48' E 030°35'0 0.0
2017-Oct-17 14:20N 36°48' E 030°35'0 0.0
2017-Oct-17 14:00N 36°48' E 030°35'0 0.0
2017-Oct-17 13:30N 36°48' E 030°35'2 4.4
2017-Oct-17 13:00N 36°50' E 030°36'0 0.0
2017-Oct-17 12:30N 36°50' E 030°36'1 1.1
2017-Oct-17 12:00N 36°50' E 030°37'2 4.6
2017-Oct-17 11:28N 36°48' E 030°35'0 0.0
2017-Oct-17 10:58N 36°48' E 030°35'0 0.0
2017-Oct-17 10:16N 36°48' E 030°35'0 0.0
2017-Oct-17 09:22N 36°48' E 030°35'0 0.0
2017-Oct-17 08:58N 36°48' E 030°35'0 0.0
2017-Oct-17 08:28N 36°48' E 030°35'0 0.0
2017-Oct-17 07:58N 36°48' E 030°35'0 0.0
2017-Oct-17 07:28N 36°48' E 030°35'0 0.0
2017-Oct-17 06:58N 36°48' E 030°35'0 0.0
2017-Oct-17 06:28N 36°48' E 030°35'0 0.0
2017-Oct-17 05:58N 36°48' E 030°35'0 0.0
2017-Oct-17 05:28N 36°48' E 030°35'1 2.9
2017-Oct-17 05:00N 36°48' E 030°36'4 7.8
2017-Oct-17 04:29N 36°48' E 030°41'4 8.0
2017-Oct-17 04:00N 36°48' E 030°46'1 3.0
2017-Oct-17 03:30N 36°48' E 030°48'1 2.7
2017-Oct-17 03:01N 36°49' E 030°50'1 2.7
2017-Oct-17 02:28N 36°49' E 030°51'0 0.0
2017-Oct-16 17:20N 36°49' E 030°52'1 2.6
2017-Oct-16 17:00N 36°49' E 030°50'2 3.4
2017-Oct-16 16:28N 36°48' E 030°49'5 0.5
2017-Oct-16 05:49N 36°45' E 030°54'2 7.6
2017-Oct-16 05:30N 36°47' E 030°53'1 1.9
2017-Oct-16 05:01N 36°48' E 030°53'1 2.6
2017-Oct-16 04:28N 36°49' E 030°55'1 2.5
2017-Oct-16 03:55N 36°49' E 030°57'2 0.3
2017-Oct-15 21:35N 36°49' E 030°54'0 2.7
2017-Oct-15 21:27N 36°49' E 030°54'1 2.7
2017-Oct-15 21:00N 36°49' E 030°52'3 0.3
2017-Oct-15 12:50N 36°47' E 030°55'1 2.7
2017-Oct-15 12:30N 36°47' E 030°53'1 2.5
2017-Oct-15 11:59N 36°47' E 030°52'1 2.6
2017-Oct-15 11:27N 36°47' E 030°50'2 3.6
2017-Oct-15 11:00N 36°48' E 030°48'4 7.8
2017-Oct-15 10:29N 36°47' E 030°43'4 8.2
2017-Oct-15 10:00N 36°48' E 030°39'3 5.8
2017-Oct-15 09:28N 36°48' E 030°35'0 0.0
2017-Oct-15 08:55N 36°48' E 030°35'0 0.0
2017-Oct-15 08:04N 36°48' E 030°35'0 0.0
2017-Oct-15 07:55N 36°48' E 030°35'0 0.0
2017-Oct-15 07:28N 36°48' E 030°35'0 0.0
2017-Oct-15 06:52N 36°48' E 030°35'0 0.0
2017-Oct-15 06:22N 36°48' E 030°35'0 0.0
2017-Oct-15 05:52N 36°48' E 030°35'0 0.0
2017-Oct-15 05:22N 36°48' E 030°35'0 0.0
2017-Oct-15 04:58N 36°48' E 030°35'0 0.0
2017-Oct-15 04:22N 36°48' E 030°35'0 0.0
2017-Oct-15 03:58N 36°48' E 030°35'0 0.0
2017-Oct-15 03:28N 36°48' E 030°35'0 0.0
2017-Oct-15 02:52N 36°48' E 030°35'0 0.0
2017-Oct-15 02:28N 36°48' E 030°35'0 0.0
2017-Oct-15 01:58N 36°48' E 030°35'0 0.0
2017-Oct-15 01:16N 36°48' E 030°35'0 0.0
2017-Oct-15 00:58N 36°48' E 030°35'0 0.0
2017-Oct-15 00:28N 36°48' E 030°35'0 0.0
2017-Oct-14 23:22N 36°48' E 030°35'0 0.0
2017-Oct-14 20:12N 36°48' E 030°35'1 5.6
2017-Oct-14 20:00N 36°48' E 030°36'4 8.5
2017-Oct-14 19:30N 36°48' E 030°41'4 8.3
2017-Oct-14 19:00N 36°48' E 030°47'1 2.7
2017-Oct-14 18:30N 36°48' E 030°48'1 2.6
2017-Oct-14 18:00N 36°49' E 030°50'1 2.6
2017-Oct-14 17:30N 36°49' E 030°51'1 2.5
2017-Oct-14 17:00N 36°48' E 030°53'1 2.5
2017-Oct-14 16:30N 36°48' E 030°54'2 2.9
2017-Oct-14 15:45N 36°46' E 030°56'5 0.6
2017-Oct-14 07:24N 36°42' E 030°55'4 3.0
2017-Oct-14 06:09N 36°44' E 030°51'1 8.2
2017-Oct-14 05:59N 36°45' E 030°51'3 6.1
2017-Oct-14 05:30N 36°47' E 030°53'1 2.3
2017-Oct-14 05:00N 36°48' E 030°55'1 2.7
2017-Oct-14 04:29N 36°48' E 030°56'1 2.7
2017-Oct-14 04:00N 36°48' E 030°58'1 2.7
2017-Oct-14 03:29N 36°48' E 030°60'4 0.8
2017-Oct-13 23:10N 36°49' E 030°55'1 2.5
2017-Oct-13 22:56N 36°49' E 030°55'1 2.5
2017-Oct-13 22:29N 36°49' E 030°53'1 2.6
2017-Oct-13 21:59N 36°49' E 030°52'2 3.2
2017-Oct-13 21:30N 36°48' E 030°50'0 0.9
2017-Oct-13 21:00N 36°48' E 030°49'1 1.7
2017-Oct-13 20:30N 36°49' E 030°50'1 2.6
2017-Oct-13 19:59N 36°49' E 030°52'1 2.6
2017-Oct-13 19:30N 36°48' E 030°54'7 0.8
2017-Oct-13 10:52N 36°42' E 030°55'2 2.4
2017-Oct-13 10:15N 36°42' E 030°53'2 6.3
2017-Oct-13 09:53N 36°43' E 030°50'3 8.0
2017-Oct-13 09:27N 36°45' E 030°47'4 8.2
2017-Oct-13 09:00N 36°47' E 030°43'4 7.9
2017-Oct-13 08:30N 36°48' E 030°38'3 5.1
2017-Oct-13 07:58N 36°48' E 030°35'0 0.0
2017-Oct-13 07:28N 36°48' E 030°35'0 0.0
2017-Oct-13 06:50N 36°48' E 030°35'0 0.0
2017-Oct-13 06:16N 36°48' E 030°35'0 0.0
2017-Oct-13 05:59N 36°48' E 030°35'0 0.0
2017-Oct-13 05:29N 36°48' E 030°35'0 0.0
2017-Oct-13 04:53N 36°48' E 030°35'0 0.0
2017-Oct-13 04:20N 36°48' E 030°35'0 0.0
2017-Oct-13 03:59N 36°48' E 030°35'0 0.0
2017-Oct-13 03:26N 36°48' E 030°35'0 0.0
2017-Oct-13 02:59N 36°48' E 030°35'0 0.0
2017-Oct-13 02:26N 36°48' E 030°35'0 0.0
2017-Oct-13 01:56N 36°48' E 030°35'0 0.4
2017-Oct-13 01:30N 36°48' E 030°35'3 5.9
2017-Oct-13 01:00N 36°47' E 030°38'4 8.2
2017-Oct-13 00:30N 36°47' E 030°43'4 7.3
2017-Oct-13 00:00N 36°48' E 030°48'1 1.7
2017-Oct-12 23:30N 36°49' E 030°48'1 2.4
2017-Oct-12 23:00N 36°48' E 030°50'1 2.5
2017-Oct-12 22:30N 36°49' E 030°51'1 2.5
2017-Oct-12 22:00N 36°48' E 030°53'1 2.6
2017-Oct-12 21:30N 36°49' E 030°55'1 2.6
2017-Oct-12 21:00N 36°49' E 030°56'3 1.6
2017-Oct-12 19:21N 36°50' E 030°59'10 1.1
2017-Oct-12 10:24N 36°42' E 030°50'3 8.6
2017-Oct-12 10:00N 36°46' E 030°52'2 4.9
2017-Oct-12 09:30N 36°48' E 030°53'1 2.0
2017-Oct-12 09:00N 36°48' E 030°54'4 1.3
2017-Oct-12 05:58N 36°48' E 030°59'2 4.7
2017-Oct-12 05:30N 36°48' E 030°56'1 2.1
2017-Oct-12 04:54N 36°48' E 030°58'3 0.3
2017-Oct-11 20:00N 36°49' E 030°55'16 0.8
2017-Oct-10 23:56N 36°48' E 030°35'0 0.0
2017-Oct-10 23:29N 36°48' E 030°35'0 0.0
2017-Oct-10 22:59N 36°48' E 030°35'0 0.0
2017-Oct-10 22:29N 36°48' E 030°35'0 0.0
2017-Oct-10 21:53N 36°48' E 030°35'0 0.0
2017-Oct-10 21:29N 36°48' E 030°35'0 0.0
2017-Oct-10 20:56N 36°48' E 030°35'0 0.0
2017-Oct-10 20:29N 36°48' E 030°35'0 0.0
2017-Oct-10 19:59N 36°48' E 030°35'0 0.0
2017-Oct-10 19:26N 36°48' E 030°35'0 0.0
2017-Oct-10 18:56N 36°48' E 030°35'0 0.0
2017-Oct-10 18:29N 36°48' E 030°35'0 0.0
2017-Oct-10 17:59N 36°48' E 030°35'0 0.0
2017-Oct-10 17:29N 36°48' E 030°35'0 0.0
2017-Oct-10 16:59N 36°48' E 030°35'0 0.0
2017-Oct-10 16:29N 36°48' E 030°35'0 0.0
2017-Oct-10 15:59N 36°48' E 030°35'0 0.0
2017-Oct-10 15:29N 36°48' E 030°35'0 0.0
2017-Oct-10 14:59N 36°48' E 030°35'0 0.0
2017-Oct-10 13:59N 36°48' E 030°35'0 0.0
2017-Oct-10 13:26N 36°48' E 030°35'0 0.0
2017-Oct-10 12:59N 36°48' E 030°35'0 0.0
2017-Oct-10 12:29N 36°48' E 030°35'0 0.0
2017-Oct-10 11:59N 36°48' E 030°35'3 6.5
2017-Oct-10 11:31N 36°48' E 030°39'4 8.3
2017-Oct-10 11:00N 36°48' E 030°44'2 5.0
2017-Oct-10 10:31N 36°49' E 030°47'1 1.9
2017-Oct-10 10:00N 36°49' E 030°48'1 2.5
2017-Oct-10 09:30N 36°48' E 030°49'1 2.5
2017-Oct-10 09:00N 36°47' E 030°51'4 1.2
2017-Oct-10 05:40N 36°47' E 030°56'1 2.5
2017-Oct-10 05:19N 36°47' E 030°55'1 2.5
2017-Oct-10 04:51N 36°47' E 030°53'1 2.5
2017-Oct-10 04:30N 36°47' E 030°52'1 2.5
2017-Oct-10 04:00N 36°48' E 030°51'1 2.5
2017-Oct-10 03:30N 36°48' E 030°50'1 2.6
2017-Oct-10 03:00N 36°49' E 030°48'4 7.3
2017-Oct-10 02:30N 36°49' E 030°44'4 8.5
2017-Oct-10 02:00N 36°49' E 030°38'3 5.2
2017-Oct-10 01:28N 36°48' E 030°35'0 0.0
2017-Oct-10 00:58N 36°48' E 030°35'0 0.0
2017-Oct-10 00:28N 36°48' E 030°35'0 0.0
2017-Oct-09 23:58N 36°48' E 030°35'0 0.0
2017-Oct-09 23:25N 36°48' E 030°35'0 0.0
2017-Oct-09 22:58N 36°48' E 030°35'0 0.0
2017-Oct-09 22:28N 36°48' E 030°35'0 0.0
2017-Oct-09 21:55N 36°48' E 030°35'0 0.0
2017-Oct-09 21:28N 36°48' E 030°35'0 0.0
2017-Oct-09 20:58N 36°48' E 030°35'0 0.0
2017-Oct-09 20:28N 36°48' E 030°35'0 0.0
2017-Oct-09 19:52N 36°48' E 030°35'0 0.0
2017-Oct-09 19:28N 36°48' E 030°35'0 0.0
2017-Oct-09 18:58N 36°48' E 030°35'0 0.0
2017-Oct-09 18:28N 36°48' E 030°35'0 0.0
2017-Oct-09 17:58N 36°48' E 030°35'0 0.0
2017-Oct-09 17:28N 36°48' E 030°35'0 0.0
2017-Oct-09 16:58N 36°48' E 030°35'0 0.0
2017-Oct-09 16:25N 36°48' E 030°35'0 0.0
2017-Oct-09 15:58N 36°48' E 030°35'0 0.0
2017-Oct-09 15:28N 36°48' E 030°35'0 0.0
2017-Oct-09 14:58N 36°48' E 030°35'0 0.0
2017-Oct-09 14:28N 36°48' E 030°35'0 0.0
2017-Oct-09 13:58N 36°48' E 030°35'0 0.0
2017-Oct-09 13:28N 36°48' E 030°35'0 0.0
2017-Oct-09 12:58N 36°48' E 030°35'0 0.0
2017-Oct-09 12:28N 36°48' E 030°35'0 0.0
2017-Oct-09 11:58N 36°48' E 030°35'0 0.0
2017-Oct-09 11:28N 36°48' E 030°35'0 0.0
2017-Oct-09 10:58N 36°48' E 030°35'0 0.0
2017-Oct-09 10:28N 36°48' E 030°35'0 0.0
2017-Oct-09 09:58N 36°48' E 030°35'0 0.0
2017-Oct-09 09:28N 36°48' E 030°35'0 0.0
2017-Oct-09 08:58N 36°48' E 030°35'0 0.0
2017-Oct-09 08:28N 36°48' E 030°35'0 0.0
2017-Oct-09 07:58N 36°48' E 030°35'0 0.0
2017-Oct-09 07:28N 36°48' E 030°35'0 0.0
2017-Oct-09 06:58N 36°48' E 030°35'  
Track history (hours):
 
Tides and Currents Weather Stations Pressure Air Temp Water Temp Dewpoint Dewpoint Depression Visibility Wind Speed Wind Dir Waves Ship Positions

Fuat Reis I

Last reported at 2017-Oct-19 06:32 UTC. Time now 2017-Oct-19 07:10 UTC.
Position N 36°42' E 030°50'.

Type: Fishing. MMSI: 271073040.

Date/timePositionNaut miles runAvg speedWind from/ knotsBaromVisibWave heightAir tempDewpointWater temp
2017-Oct-19 06:32N 36°42' E 030°50'0 4.1
2017-Oct-19 06:30N 36°42' E 030°50'4 7.7
2017-Oct-19 06:00N 36°43' E 030°45'4 8.7
2017-Oct-19 05:30N 36°46' E 030°41'4 8.4
2017-Oct-19 05:00N 36°48' E 030°36'1 2.2
2017-Oct-19 04:26N 36°48' E 030°35'0 0.0
2017-Oct-19 03:56N 36°48' E 030°35'0 0.0
2017-Oct-19 03:29N 36°48' E 030°35'0 0.0
2017-Oct-19 02:59N 36°48' E 030°35'2 4.5
2017-Oct-19 02:30N 36°48' E 030°37'4 8.6
2017-Oct-19 02:00N 36°48' E 030°43'4 8.7
2017-Oct-19 01:30N 36°48' E 030°48'3 5.1
2017-Oct-19 00:59N 36°49' E 030°51'1 2.6
2017-Oct-19 00:29N 36°48' E 030°53'1 2.7
2017-Oct-18 23:57N 36°48' E 030°55'1 0.1
2017-Oct-18 16:28N 36°48' E 030°54'1 2.6
2017-Oct-18 16:01N 36°47' E 030°53'4 6.2
2017-Oct-18 15:27N 36°44' E 030°53'1 2.4
2017-Oct-18 14:59N 36°43' E 030°53'5 2.1
2017-Oct-18 12:46N 36°41' E 030°59'1 2.4
2017-Oct-18 12:30N 36°41' E 030°59'1 2.4
2017-Oct-18 11:59N 36°41' E 031°01'1 2.5
2017-Oct-18 11:30N 36°41' E 031°03'9 1.3
2017-Oct-18 04:06N 36°43' E 030°51'2 8.5
2017-Oct-18 03:54N 36°44' E 030°50'3 8.6
2017-Oct-18 03:30N 36°48' E 030°50'3 5.0
2017-Oct-18 03:00N 36°50' E 030°52'1 2.4
2017-Oct-18 02:30N 36°49' E 030°53'1 2.6
2017-Oct-18 02:00N 36°49' E 030°54'2 2.5
2017-Oct-18 01:11N 36°48' E 030°57'4 0.6
2017-Oct-17 17:37N 36°49' E 030°51'0 2.7
2017-Oct-17 17:30N 36°49' E 030°51'1 2.6
2017-Oct-17 17:00N 36°49' E 030°49'2 4.7
2017-Oct-17 16:30N 36°48' E 030°47'4 7.6
2017-Oct-17 16:00N 36°48' E 030°42'4 8.0
2017-Oct-17 15:30N 36°48' E 030°37'2 3.7
2017-Oct-17 14:59N 36°48' E 030°35'0 0.0
2017-Oct-17 14:20N 36°48' E 030°35'0 0.0
2017-Oct-17 14:00N 36°48' E 030°35'0 0.0
2017-Oct-17 13:30N 36°48' E 030°35'2 4.4
2017-Oct-17 13:00N 36°50' E 030°36'0 0.0
2017-Oct-17 12:30N 36°50' E 030°36'1 1.1
2017-Oct-17 12:00N 36°50' E 030°37'2 4.6
2017-Oct-17 11:28N 36°48' E 030°35'0 0.0
2017-Oct-17 10:58N 36°48' E 030°35'0 0.0
2017-Oct-17 10:16N 36°48' E 030°35'0 0.0
2017-Oct-17 09:22N 36°48' E 030°35'0 0.0
2017-Oct-17 08:58N 36°48' E 030°35'0 0.0
2017-Oct-17 08:28N 36°48' E 030°35'0 0.0
2017-Oct-17 07:58N 36°48' E 030°35'0 0.0
2017-Oct-17 07:28N 36°48' E 030°35'0 0.0
2017-Oct-17 06:58N 36°48' E 030°35'0 0.0
2017-Oct-17 06:28N 36°48' E 030°35'0 0.0
2017-Oct-17 05:58N 36°48' E 030°35'0 0.0
2017-Oct-17 05:28N 36°48' E 030°35'1 2.9
2017-Oct-17 05:00N 36°48' E 030°36'4 7.8
2017-Oct-17 04:29N 36°48' E 030°41'4 8.0
2017-Oct-17 04:00N 36°48' E 030°46'1 3.0
2017-Oct-17 03:30N 36°48' E 030°48'1 2.7
2017-Oct-17 03:01N 36°49' E 030°50'1 2.7
2017-Oct-17 02:28N 36°49' E 030°51'0 0.0
2017-Oct-16 17:20N 36°49' E 030°52'1 2.6
2017-Oct-16 17:00N 36°49' E 030°50'2 3.4
2017-Oct-16 16:28N 36°48' E 030°49'5 0.5
2017-Oct-16 05:49N 36°45' E 030°54'2 7.6
2017-Oct-16 05:30N 36°47' E 030°53'1 1.9
2017-Oct-16 05:01N 36°48' E 030°53'1 2.6
2017-Oct-16 04:28N 36°49' E 030°55'1 2.5
2017-Oct-16 03:55N 36°49' E 030°57'2 0.3
2017-Oct-15 21:35N 36°49' E 030°54'0 2.7
2017-Oct-15 21:27N 36°49' E 030°54'1 2.7
2017-Oct-15 21:00N 36°49' E 030°52'3 0.3
2017-Oct-15 12:50N 36°47' E 030°55'1 2.7
2017-Oct-15 12:30N 36°47' E 030°53'1 2.5
2017-Oct-15 11:59N 36°47' E 030°52'1 2.6
2017-Oct-15 11:27N 36°47' E 030°50'2 3.6
2017-Oct-15 11:00N 36°48' E 030°48'4 7.8
2017-Oct-15 10:29N 36°47' E 030°43'4 8.2
2017-Oct-15 10:00N 36°48' E 030°39'3 5.8
2017-Oct-15 09:28N 36°48' E 030°35'0 0.0
2017-Oct-15 08:55N 36°48' E 030°35'0 0.0
2017-Oct-15 08:04N 36°48' E 030°35'0 0.0
2017-Oct-15 07:55N 36°48' E 030°35'0 0.0
2017-Oct-15 07:28N 36°48' E 030°35'0 0.0
2017-Oct-15 06:52N 36°48' E 030°35'0 0.0
2017-Oct-15 06:22N 36°48' E 030°35'0 0.0
2017-Oct-15 05:52N 36°48' E 030°35'0 0.0
2017-Oct-15 05:22N 36°48' E 030°35'0 0.0
2017-Oct-15 04:58N 36°48' E 030°35'0 0.0
2017-Oct-15 04:22N 36°48' E 030°35'0 0.0
2017-Oct-15 03:58N 36°48' E 030°35'0 0.0
2017-Oct-15 03:28N 36°48' E 030°35'0 0.0
2017-Oct-15 02:52N 36°48' E 030°35'0 0.0
2017-Oct-15 02:28N 36°48' E 030°35'0 0.0
2017-Oct-15 01:58N 36°48' E 030°35'0 0.0
2017-Oct-15 01:16N 36°48' E 030°35'0 0.0
2017-Oct-15 00:58N 36°48' E 030°35'0 0.0
2017-Oct-15 00:28N 36°48' E 030°35'0 0.0
2017-Oct-14 23:22N 36°48' E 030°35'0 0.0
2017-Oct-14 20:12N 36°48' E 030°35'1 5.6
2017-Oct-14 20:00N 36°48' E 030°36'4 8.5
2017-Oct-14 19:30N 36°48' E 030°41'4 8.3
2017-Oct-14 19:00N 36°48' E 030°47'1 2.7
2017-Oct-14 18:30N 36°48' E 030°48'1 2.6
2017-Oct-14 18:00N 36°49' E 030°50'1 2.6
2017-Oct-14 17:30N 36°49' E 030°51'1 2.5
2017-Oct-14 17:00N 36°48' E 030°53'1 2.5
2017-Oct-14 16:30N 36°48' E 030°54'2 2.9
2017-Oct-14 15:45N 36°46' E 030°56'5 0.6
2017-Oct-14 07:24N 36°42' E 030°55'4 3.0
2017-Oct-14 06:09N 36°44' E 030°51'1 8.2
2017-Oct-14 05:59N 36°45' E 030°51'3 6.1
2017-Oct-14 05:30N 36°47' E 030°53'1 2.3
2017-Oct-14 05:00N 36°48' E 030°55'1 2.7
2017-Oct-14 04:29N 36°48' E 030°56'1 2.7
2017-Oct-14 04:00N 36°48' E 030°58'1 2.7
2017-Oct-14 03:29N 36°48' E 030°60'4 0.8
2017-Oct-13 23:10N 36°49' E 030°55'1 2.5
2017-Oct-13 22:56N 36°49' E 030°55'1 2.5
2017-Oct-13 22:29N 36°49' E 030°53'1 2.6
2017-Oct-13 21:59N 36°49' E 030°52'2 3.2
2017-Oct-13 21:30N 36°48' E 030°50'0 0.9
2017-Oct-13 21:00N 36°48' E 030°49'1 1.7
2017-Oct-13 20:30N 36°49' E 030°50'1 2.6
2017-Oct-13 19:59N 36°49' E 030°52'1 2.6
2017-Oct-13 19:30N 36°48' E 030°54'7 0.8
2017-Oct-13 10:52N 36°42' E 030°55'2 2.4
2017-Oct-13 10:15N 36°42' E 030°53'2 6.3
2017-Oct-13 09:53N 36°43' E 030°50'3 8.0
2017-Oct-13 09:27N 36°45' E 030°47'4 8.2
2017-Oct-13 09:00N 36°47' E 030°43'4 7.9
2017-Oct-13 08:30N 36°48' E 030°38'3 5.1
2017-Oct-13 07:58N 36°48' E 030°35'0 0.0
2017-Oct-13 07:28N 36°48' E 030°35'0 0.0
2017-Oct-13 06:50N 36°48' E 030°35'0 0.0
2017-Oct-13 06:16N 36°48' E 030°35'0 0.0
2017-Oct-13 05:59N 36°48' E 030°35'0 0.0
2017-Oct-13 05:29N 36°48' E 030°35'0 0.0
2017-Oct-13 04:53N 36°48' E 030°35'0 0.0
2017-Oct-13 04:20N 36°48' E 030°35'0 0.0
2017-Oct-13 03:59N 36°48' E 030°35'0 0.0
2017-Oct-13 03:26N 36°48' E 030°35'0 0.0
2017-Oct-13 02:59N 36°48' E 030°35'0 0.0
2017-Oct-13 02:26N 36°48' E 030°35'0 0.0
2017-Oct-13 01:56N 36°48' E 030°35'0 0.4
2017-Oct-13 01:30N 36°48' E 030°35'3 5.9
2017-Oct-13 01:00N 36°47' E 030°38'4 8.2
2017-Oct-13 00:30N 36°47' E 030°43'4 7.3
2017-Oct-13 00:00N 36°48' E 030°48'1 1.7
2017-Oct-12 23:30N 36°49' E 030°48'1 2.4
2017-Oct-12 23:00N 36°48' E 030°50'1 2.5
2017-Oct-12 22:30N 36°49' E 030°51'1 2.5
2017-Oct-12 22:00N 36°48' E 030°53'1 2.6
2017-Oct-12 21:30N 36°49' E 030°55'1 2.6
2017-Oct-12 21:00N 36°49' E 030°56'3 1.6
2017-Oct-12 19:21N 36°50' E 030°59'10 1.1
2017-Oct-12 10:24N 36°42' E 030°50'3 8.6
2017-Oct-12 10:00N 36°46' E 030°52'2 4.9
2017-Oct-12 09:30N 36°48' E 030°53'1 2.0
2017-Oct-12 09:00N 36°48' E 030°54'4 1.3
2017-Oct-12 05:58N 36°48' E 030°59'2 4.7
2017-Oct-12 05:30N 36°48' E 030°56'1 2.1
2017-Oct-12 04:54N 36°48' E 030°58'3 0.3
2017-Oct-11 20:00N 36°49' E 030°55'16 0.8
2017-Oct-10 23:56N 36°48' E 030°35'0 0.0
2017-Oct-10 23:29N 36°48' E 030°35'0 0.0
2017-Oct-10 22:59N 36°48' E 030°35'0 0.0
2017-Oct-10 22:29N 36°48' E 030°35'0 0.0
2017-Oct-10 21:53N 36°48' E 030°35'0 0.0
2017-Oct-10 21:29N 36°48' E 030°35'0 0.0
2017-Oct-10 20:56N 36°48' E 030°35'0 0.0
2017-Oct-10 20:29N 36°48' E 030°35'0 0.0
2017-Oct-10 19:59N 36°48' E 030°35'0 0.0
2017-Oct-10 19:26N 36°48' E 030°35'0 0.0
2017-Oct-10 18:56N 36°48' E 030°35'0 0.0
2017-Oct-10 18:29N 36°48' E 030°35'0 0.0
2017-Oct-10 17:59N 36°48' E 030°35'0 0.0
2017-Oct-10 17:29N 36°48' E 030°35'0 0.0
2017-Oct-10 16:59N 36°48' E 030°35'0 0.0
2017-Oct-10 16:29N 36°48' E 030°35'0 0.0
2017-Oct-10 15:59N 36°48' E 030°35'0 0.0
2017-Oct-10 15:29N 36°48' E 030°35'0 0.0
2017-Oct-10 14:59N 36°48' E 030°35'0 0.0
2017-Oct-10 13:59N 36°48' E 030°35'0 0.0
2017-Oct-10 13:26N 36°48' E 030°35'0 0.0
2017-Oct-10 12:59N 36°48' E 030°35'0 0.0
2017-Oct-10 12:29N 36°48' E 030°35'0 0.0
2017-Oct-10 11:59N 36°48' E 030°35'3 6.5
2017-Oct-10 11:31N 36°48' E 030°39'4 8.3
2017-Oct-10 11:00N 36°48' E 030°44'2 5.0
2017-Oct-10 10:31N 36°49' E 030°47'1 1.9
2017-Oct-10 10:00N 36°49' E 030°48'1 2.5
2017-Oct-10 09:30N 36°48' E 030°49'1 2.5
2017-Oct-10 09:00N 36°47' E 030°51'4 1.2
2017-Oct-10 05:40N 36°47' E 030°56'1 2.5
2017-Oct-10 05:19N 36°47' E 030°55'1 2.5
2017-Oct-10 04:51N 36°47' E 030°53'1 2.5
2017-Oct-10 04:30N 36°47' E 030°52'1 2.5
2017-Oct-10 04:00N 36°48' E 030°51'1 2.5
2017-Oct-10 03:30N 36°48' E 030°50'1 2.6
2017-Oct-10 03:00N 36°49' E 030°48'4 7.3
2017-Oct-10 02:30N 36°49' E 030°44'4 8.5
2017-Oct-10 02:00N 36°49' E 030°38'3 5.2
2017-Oct-10 01:28N 36°48' E 030°35'0 0.0
2017-Oct-10 00:58N 36°48' E 030°35'0 0.0
2017-Oct-10 00:28N 36°48' E 030°35'0 0.0
2017-Oct-09 23:58N 36°48' E 030°35'0 0.0
2017-Oct-09 23:25N 36°48' E 030°35'0 0.0
2017-Oct-09 22:58N 36°48' E 030°35'0 0.0
2017-Oct-09 22:28N 36°48' E 030°35'0 0.0
2017-Oct-09 21:55N 36°48' E 030°35'0 0.0
2017-Oct-09 21:28N 36°48' E 030°35'0 0.0
2017-Oct-09 20:58N 36°48' E 030°35'0 0.0
2017-Oct-09 20:28N 36°48' E 030°35'0 0.0
2017-Oct-09 19:52N 36°48' E 030°35'0 0.0
2017-Oct-09 19:28N 36°48' E 030°35'0 0.0
2017-Oct-09 18:58N 36°48' E 030°35'0 0.0
2017-Oct-09 18:28N 36°48' E 030°35'0 0.0
2017-Oct-09 17:58N 36°48' E 030°35'0 0.0
2017-Oct-09 17:28N 36°48' E 030°35'0 0.0
2017-Oct-09 16:58N 36°48' E 030°35'0 0.0
2017-Oct-09 16:25N 36°48' E 030°35'0 0.0
2017-Oct-09 15:58N 36°48' E 030°35'0 0.0
2017-Oct-09 15:28N 36°48' E 030°35'0 0.0
2017-Oct-09 14:58N 36°48' E 030°35'0 0.0
2017-Oct-09 14:28N 36°48' E 030°35'0 0.0
2017-Oct-09 13:58N 36°48' E 030°35'0 0.0
2017-Oct-09 13:28N 36°48' E 030°35'0 0.0
2017-Oct-09 12:58N 36°48' E 030°35'0 0.0
2017-Oct-09 12:28N 36°48' E 030°35'0 0.0
2017-Oct-09 11:58N 36°48' E 030°35'0 0.0
2017-Oct-09 11:28N 36°48' E 030°35'0 0.0
2017-Oct-09 10:58N 36°48' E 030°35'0 0.0
2017-Oct-09 10:28N 36°48' E 030°35'0 0.0
2017-Oct-09 09:58N 36°48' E 030°35'0 0.0
2017-Oct-09 09:28N 36°48' E 030°35'0 0.0
2017-Oct-09 08:58N 36°48' E 030°35'0 0.0
2017-Oct-09 08:28N 36°48' E 030°35'0 0.0
2017-Oct-09 07:58N 36°48' E 030°35'0 0.0
2017-Oct-09 07:28N 36°48' E 030°35'0 0.0
2017-Oct-09 06:58N 36°48' E 030°35'  

Dump ship's entire track history